KPMD/PMD METAR and TAF weather

Enter ICAO airport designator
Station Type Date Time Source
KPMD METAR 2020/01/22 11:53 UTC NOAA

KPMD 221153Z AUTO 26015KT 10SM CLR 10/02 A3014 RMK AO2 SLP200 T01000022 10100 20072 58006


Station Type Date Time Source
KPMD Decoded METAR 2020/01/22 11:53 UTC NOAA

PALMDALE PROD FLIGHT PLANT, CA, United States (KPMD) 34-38N 118-05W 780M
Jan 22, 2020 - 06:53 AM EST / 2020.01.22 1153 UTC
Wind: from the W (260 degrees) at 17 MPH (15 KT):0
Visibility: 10 mile(s):0
Sky conditions: clear
Temperature: 50.0 F (10.0 C)
Dew Point: 36.0 F (2.2 C)
Relative Humidity: 58%
Pressure (altimeter): 30.14 in. Hg (1020 hPa)
Pressure tendency: 0.02 inches (0.6 hPa) lower than three hours ago
ob: KPMD 221153Z AUTO 26015KT 10SM CLR 10/02 A3014 RMK AO2 SLP200 T01000022 10100 20072 58006
cycle: 12

Station Type Date Time Source
KPMD TAF 2020/01/22 12:42 UTC NOAA

TAF KPMD 221138Z 2212/2312 25009KT P6SM SCT150 BKN200
FM221500 26011KT P6SM FEW035 SCT060
FM221900 31008KT P6SM SCT150 BKN200
FM230300 26006KT P6SM SCT200

Example: see airport list